Time;durP1;ratioP1;P1;durP2;ratioP2;P2;SDS_P1;SDS_P2;PMS_P1;PMS_P2;Temp;Humidity;BMP_temperature;BMP_pressure;BME280_temperature;BME280_humidity;BME280_pressure;Samples;Min_cycle;Max_cycle;Signal;HPM_P1;HPM_P2
2022/05/01 00:02:15;;;;;;;23.13;19.53;;;17.60;54.40;;;;;;5025036;28;20270;-43
2022/05/01 00:04:40;;;;;;;25.47;21.30;;;17.60;54.40;;;;;;5024698;28;20193;-43
2022/05/01 00:07:10;;;;;;;24.33;20.60;;;17.50;54.40;;;;;;5019342;28;20229;-42
2022/05/01 00:09:37;;;;;;;25.80;21.57;;;17.40;54.50;;;;;;5028489;28;20185;-43
2022/05/01 00:12:03;;;;;;;22.93;20.13;;;17.40;54.60;;;;;;5029376;28;20455;-43
2022/05/01 00:14:29;;;;;;;25.13;20.80;;;17.30;54.70;;;;;;5031424;28;20432;-43
2022/05/01 00:16:54;;;;;;;24.20;21.47;;;17.30;54.80;;;;;;5019117;28;20445;-43
2022/05/01 00:19:20;;;;;;;27.23;21.97;;;17.30;55.00;;;;;;5025706;28;20626;-44
2022/05/01 00:21:45;;;;;;;25.47;20.90;;;17.20;55.10;;;;;;5025382;28;20220;-45
2022/05/01 00:24:11;;;;;;;25.60;20.80;;;17.20;55.20;;;;;;5024446;28;20704;-43
2022/05/01 00:26:36;;;;;;;35.10;23.90;;;17.30;55.00;;;;;;5024478;28;20185;-43
2022/05/01 00:29:04;;;;;;;27.40;21.83;;;17.30;54.90;;;;;;5025926;28;20266;-44
2022/05/01 00:31:30;;;;;;;25.63;22.30;;;17.40;54.70;;;;;;5019453;28;20190;-43
2022/05/01 00:36:40;;;;;;;24.13;20.80;;;17.60;54.60;;;;;;5016980;28;20224;-44
2022/05/01 00:39:07;;;;;;;29.57;21.80;;;17.70;54.50;;;;;;5016642;28;20453;-43
2022/05/01 00:41:39;;;;;;;31.33;22.30;;;17.80;54.60;;;;;;5019618;28;20281;-42
2022/05/01 00:44:16;;;;;;;24.27;21.03;;;17.80;54.20;;;;;;5024180;28;20518;-45
2022/05/01 00:46:46;;;;;;;27.27;21.43;;;17.90;53.90;;;;;;5023412;28;20501;-43
2022/05/01 00:49:22;;;;;;;29.10;21.27;;;18.00;53.70;;;;;;5023628;28;20440;-43
2022/05/01 00:51:54;;;;;;;25.20;22.60;;;18.00;53.70;;;;;;5020142;28;20521;-44
2022/05/01 00:54:24;;;;;;;24.83;21.60;;;18.00;53.50;;;;;;5024139;28;20448;-44
2022/05/01 00:56:53;;;;;;;28.70;22.50;;;17.90;53.40;;;;;;5017323;28;20931;-43
2022/05/01 00:59:19;;;;;;;26.87;22.83;;;17.90;53.60;;;;;;5014829;28;20531;-43
2022/05/01 01:01:47;;;;;;;27.90;22.77;;;17.80;53.60;;;;;;5022330;28;20967;-43
2022/05/01 01:04:13;;;;;;;28.07;23.97;;;17.70;53.60;;;;;;5011421;28;20445;-45
2022/05/01 01:06:40;;;;;;;28.30;23.30;;;17.70;53.90;;;;;;5011473;28;20943;-43
2022/05/01 01:09:06;;;;;;;26.83;22.07;;;17.60;53.90;;;;;;5018529;28;20444;-47
2022/05/01 01:11:32;;;;;;;25.40;21.43;;;17.40;54.20;;;;;;5025591;28;20538;-45
2022/05/01 01:14:03;;;;;;;26.00;21.50;;;17.50;54.60;;;;;;5016207;28;20602;-43
2022/05/01 01:16:29;;;;;;;26.73;22.27;;;17.50;54.50;;;;;;5026483;28;20205;-44
2022/05/01 01:18:55;;;;;;;23.60;21.03;;;17.50;54.40;;;;;;5023517;28;20494;-44
2022/05/01 01:21:20;;;;;;;24.37;20.90;;;17.40;54.20;;;;;;5020856;28;20848;-43
2022/05/01 01:23:46;;;;;;;24.40;21.43;;;17.30;54.20;;;;;;5024220;28;20224;-44
2022/05/01 01:26:13;;;;;;;26.27;20.80;;;17.30;54.40;;;;;;5019885;28;20218;-43
2022/05/01 01:28:41;;;;;;;25.10;21.47;;;17.30;54.50;;;;;;5022027;28;20572;-42
2022/05/01 01:33:56;;;;;;;23.53;20.87;;;17.30;54.70;;;;;;5025698;28;20483;-43
2022/05/01 01:36:26;;;;;;;27.13;20.03;;;17.30;54.60;;;;;;5021229;28;20865;-45
2022/05/01 01:38:51;;;;;;;26.17;19.97;;;17.30;54.40;;;;;;5022876;28;20470;-43
2022/05/01 01:41:39;;;;;;;28.37;21.37;;;17.40;54.40;;;;;;5014309;28;20844;-44
2022/05/01 01:44:06;;;;;;;26.57;20.43;;;17.40;54.30;;;;;;5013588;28;20204;-44
2022/05/01 01:46:32;;;;;;;28.77;22.03;;;17.50;54.10;;;;;;5017884;28;20459;-43
2022/05/01 01:49:00;;;;;;;24.70;21.43;;;17.40;54.00;;;;;;5018633;28;20527;-47
2022/05/01 01:51:26;;;;;;;25.30;21.33;;;17.40;54.20;;;;;;5023056;28;21005;-42
2022/05/01 01:53:52;;;;;;;26.13;22.00;;;17.40;54.20;;;;;;5026901;28;20858;-43
2022/05/01 01:56:18;;;;;;;24.97;20.93;;;17.30;54.30;;;;;;5027298;28;20445;-43
2022/05/01 01:58:44;;;;;;;27.03;20.80;;;17.30;54.30;;;;;;5029359;28;20470;-44
2022/05/01 02:01:10;;;;;;;24.53;21.27;;;17.30;54.30;;;;;;5029315;28;20201;-42
2022/05/01 02:03:36;;;;;;;26.17;21.93;;;17.30;54.20;;;;;;5031989;28;20285;-43
2022/05/01 02:06:04;;;;;;;24.87;19.83;;;17.30;54.20;;;;;;5031991;28;20486;-45
2022/05/01 02:08:30;;;;;;;26.47;21.47;;;17.30;54.80;;;;;;5030335;28;20448;-44
2022/05/01 02:10:55;;;;;;;27.50;21.53;;;17.30;54.30;;;;;;5026893;28;20459;-43
2022/05/01 02:13:21;;;;;;;27.87;22.83;;;17.20;54.50;;;;;;5033013;28;20439;-43
2022/05/01 02:15:47;;;;;;;27.50;22.07;;;17.20;54.60;;;;;;5032867;28;20602;-44
2022/05/01 02:18:12;;;;;;;27.37;21.20;;;17.20;54.60;;;;;;5031513;28;20220;-44
2022/05/01 02:23:26;;;;;;;29.17;21.63;;;17.10;54.60;;;;;;5032402;28;20270;-43
2022/05/01 02:25:52;;;;;;;25.90;22.70;;;17.10;55.10;;;;;;5028372;28;21010;-43
2022/05/01 02:28:18;;;;;;;29.47;22.13;;;17.00;54.50;;;;;;5020449;28;20476;-45
2022/05/01 02:30:44;;;;;;;29.90;22.40;;;17.00;54.80;;;;;;5026558;28;20186;-44
2022/05/01 02:33:10;;;;;;;28.00;22.60;;;16.90;54.90;;;;;;5022220;28;20558;-44
2022/05/01 02:35:36;;;;;;;28.07;22.47;;;16.90;54.90;;;;;;5025893;28;21048;-42
2022/05/01 02:38:02;;;;;;;26.27;20.93;;;16.90;54.90;;;;;;5026941;28;20543;-44
2022/05/01 02:40:31;;;;;;;31.13;22.23;;;16.90;55.00;;;;;;5030672;28;20204;-43
2022/05/01 02:43:00;;;;;;;27.07;22.90;;;17.00;55.00;;;;;;5027304;28;20566;-44
2022/05/01 02:45:27;;;;;;;30.90;22.00;;;17.00;54.90;;;;;;5023832;28;20803;-44
2022/05/01 02:47:52;;;;;;;33.03;23.03;;;17.00;54.80;;;;;;5026260;28;20777;-43
2022/05/01 02:50:19;;;;;;;27.10;23.33;;;17.00;54.90;;;;;;5024908;28;20920;-43
2022/05/01 02:52:45;;;;;;;26.60;22.60;;;17.10;54.80;;;;;;5022427;28;20198;-42
2022/05/01 02:55:11;;;;;;;29.93;22.80;;;17.10;54.70;;;;;;5027932;28;20443;-45
2022/05/01 02:57:37;;;;;;;30.27;23.27;;;17.10;54.40;;;;;;5027635;28;20482;-43
2022/05/01 03:00:07;;;;;;;28.83;22.10;;;17.10;54.40;;;;;;5028796;28;20346;-43
2022/05/01 03:02:33;;;;;;;30.97;23.60;;;16.90;54.50;;;;;;5024822;28;20224;-44
2022/05/01 03:04:59;;;;;;;27.77;20.40;;;17.00;55.00;;;;;;5020813;28;20480;-43
2022/05/01 03:07:25;;;;;;;27.40;22.90;;;17.00;54.90;;;;;;5021407;28;20193;-43
2022/05/01 03:09:52;;;;;;;30.13;22.70;;;17.20;54.90;;;;;;5028624;28;20189;-43
2022/05/01 03:12:18;;;;;;;23.13;19.30;;;17.30;54.90;;;;;;5022527;28;20198;-43
2022/05/01 03:14:45;;;;;;;32.13;21.93;;;17.40;54.60;;;;;;5022779;28;20510;-43
2022/05/01 03:17:10;;;;;;;26.93;22.13;;;17.50;54.20;;;;;;5023398;28;20538;-44
2022/05/01 03:22:21;;;;;;;29.30;21.37;;;17.60;53.90;;;;;;5018604;28;20597;-42
2022/05/01 03:24:46;;;;;;;24.73;21.80;;;17.70;54.00;;;;;;5026315;28;20439;-44
2022/05/01 03:27:12;;;;;;;28.13;21.80;;;17.80;53.80;;;;;;5023431;28;21297;-43
2022/05/01 03:29:38;;;;;;;26.27;22.07;;;17.80;53.40;;;;;;5022014;28;20550;-44
2022/05/01 03:32:07;;;;;;;28.67;21.20;;;17.80;53.40;;;;;;5026533;28;20208;-42
2022/05/01 03:34:34;;;;;;;23.20;20.27;;;17.80;53.20;;;;;;5022727;28;20186;-43
2022/05/01 03:37:00;;;;;;;26.10;21.63;;;17.80;53.30;;;;;;5025234;28;20897;-44
2022/05/01 03:39:26;;;;;;;22.20;19.30;;;17.80;53.40;;;;;;5020602;28;20490;-43
2022/05/01 03:41:51;;;;;;;28.90;22.13;;;17.90;53.30;;;;;;5020731;28;20503;-43
2022/05/01 03:44:17;;;;;;;27.00;22.10;;;17.90;53.30;;;;;;5020330;28;20641;-43
2022/05/01 03:46:43;;;;;;;24.33;19.77;;;17.90;53.40;;;;;;5024266;28;20668;-44
2022/05/01 03:49:11;;;;;;;27.43;20.60;;;17.90;53.20;;;;;;5024088;28;20229;-44
2022/05/01 03:51:37;;;;;;;29.23;20.53;;;18.00;53.10;;;;;;5027049;28;20204;-43
2022/05/01 03:54:04;;;;;;;30.77;20.53;;;18.00;53.10;;;;;;5025828;28;20444;-42
2022/05/01 03:56:30;;;;;;;23.97;20.17;;;17.90;52.70;;;;;;5018422;28;20271;-44
2022/05/01 03:58:57;;;;;;;25.23;20.93;;;17.90;52.90;;;;;;5026405;28;20479;-42
2022/05/01 04:01:26;;;;;;;25.30;20.67;;;17.90;52.90;;;;;;5025191;28;20503;-43
2022/05/01 04:03:52;;;;;;;23.43;20.60;;;17.90;52.70;;;;;;5020957;28;20440;-42
2022/05/01 04:06:19;;;;;;;26.97;21.30;;;17.80;52.50;;;;;;5025185;28;20432;-42
2022/05/01 04:08:45;;;;;;;26.27;21.27;;;17.80;52.70;;;;;;5022600;28;20448;-43
2022/05/01 04:11:11;;;;;;;25.67;21.20;;;17.70;52.70;;;;;;5029015;28;20443;-43
2022/05/01 04:13:37;;;;;;;28.50;19.73;;;17.70;52.80;;;;;;5019506;28;20444;-44
2022/05/01 04:16:04;;;;;;;23.07;19.80;;;17.70;52.90;;;;;;5016944;28;20204;-42
2022/05/01 04:18:31;;;;;;;24.80;20.20;;;17.70;52.90;;;;;;5026465;28;20436;-44
2022/05/01 04:20:57;;;;;;;24.83;20.20;;;17.80;52.80;;;;;;5028606;28;20491;-43
2022/05/01 04:23:23;;;;;;;22.50;18.50;;;17.80;52.80;;;;;;5019292;28;20829;-43
2022/05/01 04:25:48;;;;;;;26.93;21.40;;;17.80;52.60;;;;;;5025035;28;20436;-43
2022/05/01 04:28:14;;;;;;;22.50;18.60;;;17.70;52.60;;;;;;5026529;28;20236;-43
2022/05/01 04:30:40;;;;;;;29.93;22.47;;;17.70;52.50;;;;;;5018761;28;20327;-42
2022/05/01 04:33:12;;;;;;;25.47;20.63;;;17.70;52.60;;;;;;5022345;28;20243;-44
2022/05/01 04:35:44;;;;;;;25.17;19.27;;;17.70;52.50;;;;;;5020564;28;20476;-44
2022/05/01 04:38:15;;;;;;;24.53;20.20;;;17.70;52.80;;;;;;5025657;28;20447;-43
2022/05/01 04:40:43;;;;;;;24.73;19.70;;;17.70;53.00;;;;;;5018297;28;20455;-43
2022/05/01 04:43:13;;;;;;;18.83;15.40;;;17.80;53.00;;;;;;5022625;28;20526;-43
2022/05/01 04:45:42;;;;;;;23.87;18.97;;;17.80;52.90;;;;;;5019630;28;20451;-43
2022/05/01 04:48:10;;;;;;;25.20;20.33;;;17.90;52.90;;;;;;5024160;28;20518;-43
2022/05/01 04:50:36;;;;;;;24.57;19.43;;;17.90;52.80;;;;;;5026222;28;20468;-45
2022/05/01 04:53:03;;;;;;;33.37;22.60;;;17.90;52.80;;;;;;5022490;28;20443;-44
2022/05/01 04:55:30;;;;;;;28.10;22.20;;;17.90;52.60;;;;;;5018441;28;20475;-45
2022/05/01 04:57:56;;;;;;;26.97;21.43;;;17.80;52.50;;;;;;5019238;28;20814;-43
2022/05/01 05:00:22;;;;;;;26.23;20.93;;;17.80;52.60;;;;;;5017424;28;20836;-44
2022/05/01 05:02:49;;;;;;;27.37;21.60;;;17.60;52.70;;;;;;5024016;28;20582;-43
2022/05/01 05:05:16;;;;;;;30.10;23.07;;;17.60;53.10;;;;;;5017197;28;20448;-43
2022/05/01 05:07:42;;;;;;;25.87;22.40;;;17.50;53.30;;;;;;5028159;28;20444;-43
2022/05/01 05:10:09;;;;;;;28.20;23.10;;;17.40;53.50;;;;;;5023761;28;20793;-43
2022/05/01 05:12:42;;;;;;;28.70;23.60;;;17.30;53.60;;;;;;5024745;28;20263;-44
2022/05/01 05:15:10;;;;;;;30.00;22.13;;;17.20;53.90;;;;;;5020250;28;20957;-43
2022/05/01 05:17:36;;;;;;;26.27;22.70;;;17.20;54.00;;;;;;5020288;28;20962;-43
2022/05/01 05:20:06;;;;;;;28.47;22.87;;;17.10;54.20;;;;;;5018094;28;20455;-45
2022/05/01 05:22:32;;;;;;;26.83;23.20;;;17.10;54.50;;;;;;5023460;28;20638;-44
2022/05/01 05:24:58;;;;;;;27.17;22.03;;;17.00;54.60;;;;;;5022334;28;20523;-44
2022/05/01 05:27:25;;;;;;;26.13;22.73;;;17.00;54.70;;;;;;5023665;28;20226;-44
2022/05/01 05:29:55;;;;;;;24.80;21.80;;;17.10;54.70;;;;;;5027044;28;20285;-43
2022/05/01 05:32:22;;;;;;;27.87;21.60;;;17.10;54.70;;;;;;5020013;28;20432;-44
2022/05/01 05:34:48;;;;;;;27.13;20.70;;;17.10;54.80;;;;;;5025374;28;20801;-44
2022/05/01 05:37:14;;;;;;;26.97;21.93;;;17.20;54.90;;;;;;5019294;28;20450;-44
2022/05/01 05:39:40;;;;;;;27.83;21.37;;;17.20;54.80;;;;;;5017445;28;20803;-43
2022/05/01 05:42:06;;;;;;;27.20;22.87;;;17.20;54.70;;;;;;5022333;28;20491;-44
2022/05/01 05:44:32;;;;;;;26.13;21.70;;;17.20;54.70;;;;;;5022809;28;20193;-44
2022/05/01 05:46:57;;;;;;;25.73;21.93;;;17.10;54.60;;;;;;5021158;28;20471;-43
2022/05/01 05:49:23;;;;;;;25.03;21.70;;;17.00;54.70;;;;;;5026132;28;20268;-43
2022/05/01 05:51:48;;;;;;;27.03;21.10;;;16.80;54.80;;;;;;5016662;28;20198;-43
2022/05/01 05:54:14;;;;;;;30.33;23.50;;;16.80;55.20;;;;;;5016437;28;20201;-44
2022/05/01 05:56:39;;;;;;;33.17;23.37;;;16.80;55.20;;;;;;5017690;28;20196;-44
2022/05/01 05:59:05;;;;;;;31.00;23.03;;;16.90;55.20;;;;;;5022571;28;20193;-41
2022/05/01 06:01:31;;;;;;;28.13;21.90;;;16.90;55.30;;;;;;5019051;28;20271;-42
2022/05/01 06:03:56;;;;;;;27.83;23.20;;;16.80;55.40;;;;;;5024559;28;20228;-42
2022/05/01 06:06:22;;;;;;;26.77;21.60;;;16.80;55.50;;;;;;5024633;28;20189;-42
2022/05/01 06:08:47;;;;;;;28.57;22.00;;;16.80;55.70;;;;;;5018330;28;20186;-41
2022/05/01 06:11:14;;;;;;;28.30;24.37;;;16.90;55.80;;;;;;5018065;28;20223;-42
2022/05/01 06:13:39;;;;;;;32.07;24.70;;;17.00;55.60;;;;;;5023825;28;20255;-42
2022/05/01 06:16:05;;;;;;;28.50;24.00;;;17.00;55.30;;;;;;5023111;28;20443;-42
2022/05/01 06:18:31;;;;;;;31.17;23.60;;;17.10;55.20;;;;;;5021293;28;20185;-42
2022/05/01 06:20:59;;;;;;;27.43;22.80;;;17.00;55.20;;;;;;5015969;28;20193;-42
2022/05/01 06:23:25;;;;;;;30.53;24.03;;;17.00;55.30;;;;;;5025912;28;20225;-41
2022/05/01 06:25:51;;;;;;;29.60;23.00;;;17.00;55.40;;;;;;5023418;28;20954;-42
2022/05/01 06:28:17;;;;;;;28.37;23.37;;;17.00;55.40;;;;;;5022873;28;20600;-42
2022/05/01 06:30:48;;;;;;;28.13;22.83;;;17.00;55.40;;;;;;5016882;28;20199;-42
2022/05/01 06:33:15;;;;;;;28.97;21.87;;;17.00;55.30;;;;;;5024975;28;20543;-42
2022/05/01 06:35:42;;;;;;;31.30;24.37;;;17.10;55.10;;;;;;5022923;28;20854;-42
2022/05/01 06:38:08;;;;;;;28.70;22.80;;;17.00;55.00;;;;;;5019607;28;20447;-41
2022/05/01 06:40:35;;;;;;;30.73;23.30;;;17.00;54.90;;;;;;5023651;28;20454;-42
2022/05/01 06:43:01;;;;;;;26.30;21.70;;;17.00;54.90;;;;;;5029266;28;20611;-41
2022/05/01 06:45:26;;;;;;;28.87;23.60;;;17.10;55.00;;;;;;5030878;28;20530;-41
2022/05/01 06:47:52;;;;;;;30.00;21.53;;;17.10;54.90;;;;;;5030980;28;20677;-42
2022/05/01 06:50:18;;;;;;;28.43;21.83;;;17.20;54.70;;;;;;5030609;28;20209;-42
2022/05/01 06:52:43;;;;;;;28.67;22.73;;;17.20;54.50;;;;;;5031308;28;20201;-42
2022/05/01 06:55:09;;;;;;;28.17;22.47;;;17.30;54.40;;;;;;5032591;28;20566;-42
2022/05/01 06:57:35;;;;;;;27.33;22.20;;;17.30;54.30;;;;;;5023980;28;20201;-41
2022/05/01 07:00:01;;;;;;;26.50;21.73;;;17.40;54.20;;;;;;5027041;28;20208;-42
2022/05/01 07:02:26;;;;;;;25.13;20.73;;;17.40;54.20;;;;;;5029737;28;20228;-42
2022/05/01 07:04:52;;;;;;;25.83;22.93;;;17.40;54.10;;;;;;5028423;28;20193;-42
2022/05/01 07:07:18;;;;;;;25.70;22.03;;;17.40;54.10;;;;;;5030924;28;20276;-42
2022/05/01 07:09:43;;;;;;;29.10;22.07;;;17.50;54.10;;;;;;5027468;28;20482;-42
2022/05/01 07:12:11;;;;;;;27.10;22.00;;;17.50;54.10;;;;;;5031857;28;20201;-41
2022/05/01 07:14:38;;;;;;;24.87;21.70;;;17.50;53.90;;;;;;5031069;28;20190;-42
2022/05/01 07:17:03;;;;;;;26.27;21.33;;;17.50;53.90;;;;;;5029439;28;21007;-42
2022/05/01 07:19:29;;;;;;;30.30;22.03;;;17.60;54.10;;;;;;5023063;28;20531;-41
2022/05/01 07:21:55;;;;;;;26.77;20.43;;;17.60;54.00;;;;;;5021743;28;20241;-42
2022/05/01 07:24:20;;;;;;;23.53;21.00;;;17.60;54.00;;;;;;5030557;28;20205;-42
2022/05/01 07:26:46;;;;;;;30.97;23.47;;;17.50;53.90;;;;;;5028520;28;20205;-41
2022/05/01 07:29:11;;;;;;;27.90;22.30;;;17.60;54.00;;;;;;5029935;28;20193;-42
2022/05/01 07:31:37;;;;;;;24.73;20.67;;;17.70;54.10;;;;;;5028789;28;20228;-42
2022/05/01 07:34:03;;;;;;;25.47;22.07;;;17.80;54.20;;;;;;5028681;28;20212;-42
2022/05/01 07:36:28;;;;;;;27.00;21.23;;;17.80;53.90;;;;;;5028738;28;20243;-42
2022/05/01 07:38:54;;;;;;;27.13;22.43;;;17.80;53.80;;;;;;5027197;28;20683;-42
2022/05/01 07:41:19;;;;;;;24.63;20.23;;;17.80;53.80;;;;;;5024814;28;20607;-41
2022/05/01 07:43:46;;;;;;;23.80;20.17;;;17.80;53.50;;;;;;5027585;28;20189;-42
2022/05/01 07:46:11;;;;;;;24.13;19.87;;;17.90;53.30;;;;;;5031089;28;20219;-42
2022/05/01 07:48:37;;;;;;;24.73;19.60;;;17.90;52.90;;;;;;5023260;28;20484;-43
2022/05/01 07:51:03;;;;;;;24.57;20.50;;;17.90;53.00;;;;;;5024889;28;20198;-41
2022/05/01 07:53:29;;;;;;;24.10;20.30;;;17.90;53.10;;;;;;5029732;28;20448;-42
2022/05/01 07:55:56;;;;;;;22.90;19.90;;;17.90;53.70;;;;;;5021107;28;20649;-41
2022/05/01 07:58:22;;;;;;;19.60;17.20;;;17.90;53.50;;;;;;5022358;28;20194;-42
2022/05/01 08:00:48;;;;;;;23.40;20.13;;;18.00;53.30;;;;;;5024155;28;20436;-41
2022/05/01 08:05:58;;;;;;;21.90;19.50;;;18.20;53.00;;;;;;5020285;28;20496;-41
2022/05/01 08:08:25;;;;;;;24.17;19.47;;;18.30;52.50;;;;;;5030879;28;20471;-43
2022/05/01 08:10:50;;;;;;;20.07;17.57;;;18.40;52.30;;;;;;5017192;28;20197;-41
2022/05/01 08:13:16;;;;;;;21.70;19.40;;;18.50;52.20;;;;;;5025913;28;20999;-42
2022/05/01 08:15:42;;;;;;;21.70;18.37;;;18.50;51.80;;;;;;5024970;28;20216;-42
2022/05/01 08:21:10;;;;;;;22.37;19.20;;;18.60;51.30;;;;;;5027693;28;20208;-42
2022/05/01 08:23:38;;;;;;;22.03;18.57;;;18.60;51.20;;;;;;5030600;28;20483;-42
2022/05/01 08:26:06;;;;;;;19.70;17.60;;;18.70;51.50;;;;;;5023709;28;20523;-42
2022/05/01 08:28:36;;;;;;;20.00;17.07;;;18.70;51.40;;;;;;5026327;28;20462;-42
2022/05/01 08:31:03;;;;;;;18.87;16.97;;;18.70;51.80;;;;;;5024753;28;20823;-42
2022/05/01 08:33:29;;;;;;;13.93;12.50;;;18.70;51.70;;;;;;5024575;28;20443;-42
2022/05/01 08:35:54;;;;;;;18.20;16.30;;;18.90;51.70;;;;;;5028122;28;20444;-42
2022/05/01 08:38:20;;;;;;;20.17;16.17;;;19.00;51.70;;;;;;5025013;28;20209;-42
2022/05/01 08:40:48;;;;;;;21.20;16.77;;;19.10;50.80;;;;;;5020741;28;20193;-44
2022/05/01 08:43:21;;;;;;;19.73;17.67;;;19.20;50.90;;;;;;5023946;28;20483;-42
2022/05/01 08:46:16;;;;;;;19.60;15.80;;;19.20;50.10;;;;;;5018631;28;20437;-41
2022/05/01 08:49:06;;;;;;;16.73;15.00;;;19.40;50.00;;;;;;5015461;28;20484;-43
2022/05/01 08:51:34;;;;;;;19.30;17.30;;;19.40;50.20;;;;;;5018807;28;21018;-44
2022/05/01 08:54:03;;;;;;;22.23;17.37;;;19.50;49.80;;;;;;5026872;28;20531;-43
2022/05/01 08:56:34;;;;;;;19.20;16.90;;;19.50;49.80;;;;;;5021543;28;20505;-45
2022/05/01 08:59:04;;;;;;;17.00;14.60;;;19.70;49.80;;;;;;5024613;28;20915;-43
2022/05/01 09:01:32;;;;;;;21.20;15.57;;;19.80;49.20;;;;;;5018347;28;20468;-43
2022/05/01 09:03:57;;;;;;;16.80;15.10;;;19.90;48.70;;;;;;5023461;28;20448;-43
2022/05/01 09:06:23;;;;;;;17.37;15.10;;;19.90;48.10;;;;;;5025438;28;20458;-43
2022/05/01 09:08:51;;;;;;;19.33;17.13;;;20.00;48.90;;;;;;5017029;28;20206;-45
2022/05/01 09:14:02;;;;;;;16.13;13.87;;;20.20;47.60;;;;;;5025147;28;20474;-43
2022/05/01 09:16:28;;;;;;;16.97;14.73;;;20.30;47.00;;;;;;5025061;28;20447;-43
2022/05/01 09:18:54;;;;;;;15.50;13.83;;;20.40;47.40;;;;;;5016183;28;20450;-44
2022/05/01 09:21:19;;;;;;;17.87;16.00;;;20.40;47.10;;;;;;5011093;28;20198;-43
2022/05/01 09:23:47;;;;;;;15.70;14.10;;;20.40;46.40;;;;;;5017245;28;20189;-44
2022/05/01 09:26:17;;;;;;;15.43;13.70;;;20.40;46.10;;;;;;5016076;28;20546;-44
2022/05/01 09:28:54;;;;;;;14.47;12.93;;;20.50;46.10;;;;;;5020991;28;20620;-44
2022/05/01 09:31:42;;;;;;;16.10;13.60;;;20.50;45.40;;;;;;5022968;28;20930;-44
2022/05/01 09:34:23;;;;;;;14.93;13.40;;;20.40;45.20;;;;;;5014595;28;20884;-44
2022/05/01 09:36:49;;;;;;;16.00;14.23;;;20.50;45.30;;;;;;5019942;28;20447;-43
2022/05/01 09:39:19;;;;;;;16.13;12.73;;;20.30;45.10;;;;;;5026832;28;20470;-43
2022/05/01 09:41:45;;;;;;;15.03;13.33;;;20.50;45.30;;;;;;5023921;28;20479;-43
2022/05/01 09:44:18;;;;;;;15.07;13.53;;;20.50;45.30;;;;;;5018430;28;20432;-43
2022/05/01 09:46:45;;;;;;;15.00;13.00;;;20.50;44.40;;;;;;5020634;28;20464;-44
2022/05/01 09:49:13;;;;;;;15.30;13.80;;;20.60;44.70;;;;;;5021450;28;20497;-44
2022/05/01 09:52:03;;;;;;;16.13;12.83;;;20.60;44.70;;;;;;5017904;28;20452;-44
2022/05/01 09:54:28;;;;;;;13.30;12.10;;;20.80;44.80;;;;;;5024846;28;20815;-46
2022/05/01 09:56:57;;;;;;;15.17;13.67;;;20.80;44.70;;;;;;5019571;28;20435;-44
2022/05/01 09:59:24;;;;;;;15.23;13.30;;;20.90;44.70;;;;;;5023117;28;20192;-43
2022/05/01 10:02:02;;;;;;;13.50;12.20;;;21.00;44.00;;;;;;5013913;28;20593;-43
2022/05/01 10:04:32;;;;;;;14.40;12.90;;;21.20;45.30;;;;;;5024929;28;20562;-44
2022/05/01 10:06:58;;;;;;;13.50;11.60;;;21.40;45.00;;;;;;5020805;28;20493;-44
2022/05/01 10:09:32;;;;;;;16.80;14.30;;;21.60;46.00;;;;;;5026748;28;20463;-44
2022/05/01 10:12:03;;;;;;;16.50;14.90;;;21.80;44.10;;;;;;5019522;28;20968;-43
2022/05/01 10:14:29;;;;;;;13.93;12.53;;;21.80;43.20;;;;;;5029271;28;20451;-43
2022/05/01 10:16:56;;;;;;;14.77;13.40;;;21.90;42.90;;;;;;5026705;28;20443;-45
2022/05/01 10:19:26;;;;;;;13.80;12.33;;;21.90;43.00;;;;;;5032385;28;20725;-44
2022/05/01 10:21:56;;;;;;;13.83;12.17;;;21.90;43.90;;;;;;5026259;28;20495;-44
2022/05/01 10:24:22;;;;;;;14.53;13.10;;;21.90;43.20;;;;;;5029913;28;20440;-43
2022/05/01 10:27:01;;;;;;;15.70;14.10;;;22.10;43.10;;;;;;5029923;28;20436;-43
2022/05/01 10:29:31;;;;;;;14.70;13.20;;;22.00;42.40;;;;;;5029081;28;20509;-44
2022/05/01 10:32:22;;;;;;;14.00;12.53;;;21.80;43.30;;;;;;5019903;28;21279;-43
2022/05/01 10:35:20;;;;;;;14.67;12.77;;;21.70;43.70;;;;;;5029533;28;20435;-43
2022/05/01 10:38:17;;;;;;;12.83;11.53;;;21.80;44.30;;;;;;5023421;28;20818;-44
2022/05/01 10:41:04;;;;;;;13.37;12.07;;;21.90;43.80;;;;;;5029578;28;21001;-44
2022/05/01 10:43:31;;;;;;;12.23;11.07;;;22.30;42.50;;;;;;5027671;28;20490;-44
2022/05/01 10:46:18;;;;;;;13.20;11.80;;;22.50;42.00;;;;;;5030619;28;20442;-44
2022/05/01 10:48:44;;;;;;;12.70;11.40;;;22.80;41.10;;;;;;5017406;28;20481;-43
2022/05/01 10:51:31;;;;;;;14.03;11.10;;;22.90;40.90;;;;;;5031108;28;20478;-43
2022/05/01 10:54:19;;;;;;;12.40;11.20;;;22.90;39.50;;;;;;5030015;28;20462;-43
2022/05/01 10:56:50;;;;;;;12.87;11.57;;;23.00;39.40;;;;;;5018099;28;20507;-43
2022/05/01 10:59:31;;;;;;;12.97;11.70;;;22.80;39.10;;;;;;5024972;28;20474;-45
2022/05/01 11:01:58;;;;;;;11.80;10.70;;;22.80;39.40;;;;;;5024627;28;20494;-43
2022/05/01 11:04:23;;;;;;;12.87;11.57;;;22.80;40.10;;;;;;5028696;28;21005;-45
2022/05/01 11:06:51;;;;;;;14.87;13.27;;;22.80;39.60;;;;;;5027457;28;20467;-45
2022/05/01 11:09:21;;;;;;;12.40;11.10;;;22.40;39.00;;;;;;5031586;28;20669;-44
2022/05/01 11:11:52;;;;;;;12.43;11.30;;;22.40;39.50;;;;;;5024533;28;20456;-44
2022/05/01 11:14:31;;;;;;;11.10;8.57;;;22.50;39.60;;;;;;5028965;28;20446;-43
2022/05/01 11:16:57;;;;;;;16.90;12.17;;;22.60;40.10;;;;;;5024962;28;21286;-44
2022/05/01 11:19:23;;;;;;;13.00;11.60;;;22.50;40.10;;;;;;5020111;28;20451;-45
2022/05/01 11:21:49;;;;;;;10.07;8.63;;;22.60;39.70;;;;;;5027985;28;20557;-44
2022/05/01 11:24:15;;;;;;;11.70;10.60;;;22.60;40.40;;;;;;5026312;28;20928;-44
2022/05/01 11:27:13;;;;;;;11.27;10.10;;;22.80;40.00;;;;;;5026494;28;20450;-43
2022/05/01 11:29:59;;;;;;;9.70;8.10;;;22.90;39.60;;;;;;5026424;28;21166;-44
2022/05/01 11:32:25;;;;;;;8.77;7.87;;;23.10;40.50;;;;;;5023674;28;20539;-44
2022/05/01 11:34:52;;;;;;;10.67;9.57;;;23.40;40.90;;;;;;5028297;28;20523;-43
2022/05/01 11:37:19;;;;;;;11.53;10.40;;;23.60;40.30;;;;;;5019879;28;20201;-43
2022/05/01 11:39:50;;;;;;;12.03;10.80;;;23.80;38.90;;;;;;5027966;28;20463;-43
2022/05/01 11:42:29;;;;;;;11.57;10.47;;;23.80;38.60;;;;;;5027086;28;20523;-42
2022/05/01 11:44:57;;;;;;;11.23;10.00;;;24.00;38.00;;;;;;5019042;28;21042;-44
2022/05/01 11:47:33;;;;;;;11.97;10.90;;;24.00;38.00;;;;;;5021793;28;21140;-44
2022/05/01 11:49:59;;;;;;;12.80;11.10;;;24.00;38.50;;;;;;5024692;28;20519;-44
2022/05/01 11:52:25;;;;;;;11.83;9.57;;;23.80;38.30;;;;;;5031304;28;20432;-43
2022/05/01 11:54:57;;;;;;;10.57;9.47;;;23.80;38.70;;;;;;5030081;28;20488;-43
2022/05/01 12:03:03;;;;;;;11.37;10.17;;;24.00;38.50;;;;;;5029660;28;20557;-43
2022/05/01 12:05:48;;;;;;;13.20;10.83;;;24.10;39.40;;;;;;5028157;28;20829;-43
2022/05/01 12:08:18;;;;;;;11.17;9.83;;;24.30;40.00;;;;;;5025471;28;20479;-43
2022/05/01 12:10:45;;;;;;;12.10;10.80;;;24.30;38.70;;;;;;5026700;28;20436;-43
2022/05/01 12:13:22;;;;;;;12.60;11.30;;;24.40;37.70;;;;;;5021290;28;20440;-44
2022/05/01 12:15:49;;;;;;;12.03;10.93;;;24.50;37.40;;;;;;5027038;28;20448;-43
2022/05/01 12:18:15;;;;;;;10.57;9.53;;;24.40;37.40;;;;;;5030605;28;20503;-43
2022/05/01 12:20:41;;;;;;;10.93;9.83;;;24.50;37.40;;;;;;5024539;28;20537;-45
2022/05/01 12:23:21;;;;;;;12.80;11.60;;;24.60;38.30;;;;;;5018596;28;20579;-44
2022/05/01 12:25:50;;;;;;;11.63;10.43;;;24.80;37.00;;;;;;5025160;28;20196;-43
2022/05/01 12:28:20;;;;;;;11.40;10.40;;;24.80;37.10;;;;;;5016184;28;20522;-45
2022/05/01 12:30:50;;;;;;;11.30;10.20;;;24.80;36.20;;;;;;5019554;28;20488;-44
2022/05/01 12:33:24;;;;;;;9.00;8.20;;;24.90;35.70;;;;;;5027583;28;20478;-44
2022/05/01 12:35:56;;;;;;;11.07;9.97;;;25.00;36.50;;;;;;5017577;28;20481;-45
2022/05/01 12:38:22;;;;;;;10.00;9.07;;;25.00;36.00;;;;;;5029673;28;20428;-43
2022/05/01 12:43:51;;;;;;;9.97;9.07;;;25.00;35.50;;;;;;5013407;28;20506;-45
2022/05/01 12:46:28;;;;;;;10.30;9.30;;;24.80;35.70;;;;;;5025620;28;20531;-44
2022/05/01 12:48:54;;;;;;;9.77;8.77;;;24.60;36.00;;;;;;5023932;28;20518;-44
2022/05/01 12:51:20;;;;;;;11.73;10.13;;;24.70;35.80;;;;;;5023802;28;20455;-45
2022/05/01 12:53:46;;;;;;;9.40;8.50;;;24.70;36.70;;;;;;5024592;28;20440;-44
2022/05/01 12:56:22;;;;;;;9.83;8.90;;;24.70;37.80;;;;;;5024068;28;20192;-43
2022/05/01 12:58:49;;;;;;;11.20;10.20;;;24.80;37.30;;;;;;5017570;28;20197;-44
2022/05/01 13:01:29;;;;;;;9.03;8.23;;;24.70;36.90;;;;;;5018453;28;21670;-45
2022/05/01 13:03:55;;;;;;;10.57;9.67;;;24.50;38.20;;;;;;5028662;28;20494;-44